sensor_id;sensor_type;location;lat;lon;timestamp;P1;durP1;ratioP1;P2;durP2;ratioP2
4704;SDS011;2366;51.332;6.610;2022-08-19T00:01:23;9.03;;;8.13;;
4704;SDS011;2366;51.332;6.610;2022-08-19T00:03:50;11.30;;;8.80;;
4704;SDS011;2366;51.332;6.610;2022-08-19T00:06:16;10.37;;;9.07;;
4704;SDS011;2366;51.332;6.610;2022-08-19T00:08:41;9.17;;;7.70;;
4704;SDS011;2366;51.332;6.610;2022-08-19T00:11:07;11.43;;;10.07;;
4704;SDS011;2366;51.332;6.610;2022-08-19T00:13:34;9.70;;;8.70;;
4704;SDS011;2366;51.332;6.610;2022-08-19T00:15:59;17.17;;;8.60;;
4704;SDS011;2366;51.332;6.610;2022-08-19T00:18:26;12.63;;;8.70;;
4704;SDS011;2366;51.332;6.610;2022-08-19T00:20:52;9.30;;;7.90;;
4704;SDS011;2366;51.332;6.610;2022-08-19T00:23:17;10.63;;;8.70;;
4704;SDS011;2366;51.332;6.610;2022-08-19T00:25:43;10.33;;;8.90;;
4704;SDS011;2366;51.332;6.610;2022-08-19T00:28:09;10.97;;;9.63;;
4704;SDS011;2366;51.332;6.610;2022-08-19T00:30:37;14.15;;;7.95;;
4704;SDS011;2366;51.332;6.610;2022-08-19T00:33:02;11.60;;;9.17;;
4704;SDS011;2366;51.332;6.610;2022-08-19T00:35:28;11.73;;;10.43;;
4704;SDS011;2366;51.332;6.610;2022-08-19T00:37:54;10.50;;;8.43;;
4704;SDS011;2366;51.332;6.610;2022-08-19T00:40:19;10.27;;;8.00;;
4704;SDS011;2366;51.332;6.610;2022-08-19T00:42:45;9.60;;;8.07;;
4704;SDS011;2366;51.332;6.610;2022-08-19T00:45:13;9.83;;;8.37;;
4704;SDS011;2366;51.332;6.610;2022-08-19T00:47:44;8.80;;;7.90;;
4704;SDS011;2366;51.332;6.610;2022-08-19T00:50:11;13.25;;;8.65;;
4704;SDS011;2366;51.332;6.610;2022-08-19T00:52:40;10.82;;;9.15;;
4704;SDS011;2366;51.332;6.610;2022-08-19T00:55:10;11.63;;;9.45;;
4704;SDS011;2366;51.332;6.610;2022-08-19T00:57:41;13.52;;;8.98;;
4704;SDS011;2366;51.332;6.610;2022-08-19T01:00:11;10.93;;;9.25;;
4704;SDS011;2366;51.332;6.610;2022-08-19T01:02:39;9.45;;;8.20;;
4704;SDS011;2366;51.332;6.610;2022-08-19T01:05:07;9.50;;;8.60;;
4704;SDS011;2366;51.332;6.610;2022-08-19T01:07:39;10.55;;;8.07;;
4704;SDS011;2366;51.332;6.610;2022-08-19T01:10:07;14.80;;;8.05;;
4704;SDS011;2366;51.332;6.610;2022-08-19T01:12:35;10.25;;;9.18;;
4704;SDS011;2366;51.332;6.610;2022-08-19T01:15:02;10.25;;;8.45;;
4704;SDS011;2366;51.332;6.610;2022-08-19T01:17:28;12.80;;;8.20;;
4704;SDS011;2366;51.332;6.610;2022-08-19T01:19:54;12.77;;;9.93;;
4704;SDS011;2366;51.332;6.610;2022-08-19T01:24:48;10.35;;;8.75;;
4704;SDS011;2366;51.332;6.610;2022-08-19T01:27:13;10.40;;;9.30;;
4704;SDS011;2366;51.332;6.610;2022-08-19T01:29:39;15.90;;;9.57;;
4704;SDS011;2366;51.332;6.610;2022-08-19T01:32:08;12.63;;;10.65;;
4704;SDS011;2366;51.332;6.610;2022-08-19T01:34:36;12.82;;;9.68;;
4704;SDS011;2366;51.332;6.610;2022-08-19T01:37:05;16.73;;;9.83;;
4704;SDS011;2366;51.332;6.610;2022-08-19T01:39:33;11.32;;;9.32;;
4704;SDS011;2366;51.332;6.610;2022-08-19T01:41:59;25.33;;;12.18;;
4704;SDS011;2366;51.332;6.610;2022-08-19T01:44:28;10.43;;;9.23;;
4704;SDS011;2366;51.332;6.610;2022-08-19T01:46:53;12.70;;;8.23;;
4704;SDS011;2366;51.332;6.610;2022-08-19T01:49:19;12.13;;;9.23;;
4704;SDS011;2366;51.332;6.610;2022-08-19T01:51:46;10.45;;;9.30;;
4704;SDS011;2366;51.332;6.610;2022-08-19T01:54:12;10.63;;;9.60;;
4704;SDS011;2366;51.332;6.610;2022-08-19T01:56:40;11.82;;;9.52;;
4704;SDS011;2366;51.332;6.610;2022-08-19T01:59:08;22.47;;;9.40;;
4704;SDS011;2366;51.332;6.610;2022-08-19T02:01:37;13.00;;;9.73;;
4704;SDS011;2366;51.332;6.610;2022-08-19T02:04:02;10.20;;;9.00;;
4704;SDS011;2366;51.332;6.610;2022-08-19T02:06:28;11.30;;;8.90;;
4704;SDS011;2366;51.332;6.610;2022-08-19T02:08:54;15.00;;;9.05;;
4704;SDS011;2366;51.332;6.610;2022-08-19T02:11:21;11.32;;;9.43;;
4704;SDS011;2366;51.332;6.610;2022-08-19T02:13:52;13.95;;;10.18;;
4704;SDS011;2366;51.332;6.610;2022-08-19T02:16:19;14.23;;;9.88;;
4704;SDS011;2366;51.332;6.610;2022-08-19T02:18:45;11.95;;;10.55;;
4704;SDS011;2366;51.332;6.610;2022-08-19T02:21:13;17.35;;;9.80;;
4704;SDS011;2366;51.332;6.610;2022-08-19T02:23:43;11.70;;;9.90;;
4704;SDS011;2366;51.332;6.610;2022-08-19T02:26:09;16.05;;;11.32;;
4704;SDS011;2366;51.332;6.610;2022-08-19T02:28:35;16.10;;;10.38;;
4704;SDS011;2366;51.332;6.610;2022-08-19T02:31:02;12.77;;;11.53;;
4704;SDS011;2366;51.332;6.610;2022-08-19T02:33:28;14.98;;;12.63;;
4704;SDS011;2366;51.332;6.610;2022-08-19T02:35:54;15.48;;;11.57;;
4704;SDS011;2366;51.332;6.610;2022-08-19T02:38:19;16.37;;;12.93;;
4704;SDS011;2366;51.332;6.610;2022-08-19T02:40:51;16.40;;;13.15;;
4704;SDS011;2366;51.332;6.610;2022-08-19T02:43:19;20.05;;;13.00;;
4704;SDS011;2366;51.332;6.610;2022-08-19T02:45:45;17.80;;;14.10;;
4704;SDS011;2366;51.332;6.610;2022-08-19T02:48:13;18.92;;;13.60;;
4704;SDS011;2366;51.332;6.610;2022-08-19T02:50:43;27.35;;;17.75;;
4704;SDS011;2366;51.332;6.610;2022-08-19T02:53:09;26.52;;;20.70;;
4704;SDS011;2366;51.332;6.610;2022-08-19T02:55:35;33.33;;;20.63;;
4704;SDS011;2366;51.332;6.610;2022-08-19T02:58:00;39.57;;;24.27;;
4704;SDS011;2366;51.332;6.610;2022-08-19T03:00:26;35.87;;;25.90;;
4704;SDS011;2366;51.332;6.610;2022-08-19T03:02:52;35.15;;;26.08;;
4704;SDS011;2366;51.332;6.610;2022-08-19T03:05:18;37.83;;;24.80;;
4704;SDS011;2366;51.332;6.610;2022-08-19T03:07:43;45.87;;;25.73;;
4704;SDS011;2366;51.332;6.610;2022-08-19T03:10:09;41.63;;;27.90;;
4704;SDS011;2366;51.332;6.610;2022-08-19T03:12:36;43.73;;;25.63;;
4704;SDS011;2366;51.332;6.610;2022-08-19T03:15:03;42.63;;;26.50;;
4704;SDS011;2366;51.332;6.610;2022-08-19T03:17:30;42.50;;;26.23;;
4704;SDS011;2366;51.332;6.610;2022-08-19T03:19:56;42.70;;;28.67;;
4704;SDS011;2366;51.332;6.610;2022-08-19T03:22:22;43.90;;;29.87;;
4704;SDS011;2366;51.332;6.610;2022-08-19T03:24:47;46.00;;;30.10;;
4704;SDS011;2366;51.332;6.610;2022-08-19T03:27:13;48.93;;;28.70;;
4704;SDS011;2366;51.332;6.610;2022-08-19T03:29:39;47.93;;;30.40;;
4704;SDS011;2366;51.332;6.610;2022-08-19T03:32:05;50.00;;;31.63;;
4704;SDS011;2366;51.332;6.610;2022-08-19T03:34:32;44.50;;;30.27;;
4704;SDS011;2366;51.332;6.610;2022-08-19T03:37:02;47.72;;;30.42;;
4704;SDS011;2366;51.332;6.610;2022-08-19T03:39:30;52.33;;;31.98;;
4704;SDS011;2366;51.332;6.610;2022-08-19T03:41:56;51.87;;;31.73;;
4704;SDS011;2366;51.332;6.610;2022-08-19T03:44:23;56.75;;;33.10;;
4704;SDS011;2366;51.332;6.610;2022-08-19T03:46:50;55.33;;;32.43;;
4704;SDS011;2366;51.332;6.610;2022-08-19T03:49:18;46.80;;;30.67;;
4704;SDS011;2366;51.332;6.610;2022-08-19T03:51:45;47.90;;;32.85;;
4704;SDS011;2366;51.332;6.610;2022-08-19T03:54:13;54.33;;;33.80;;
4704;SDS011;2366;51.332;6.610;2022-08-19T03:56:41;52.88;;;33.45;;
4704;SDS011;2366;51.332;6.610;2022-08-19T03:59:09;48.72;;;33.67;;
4704;SDS011;2366;51.332;6.610;2022-08-19T04:01:36;51.10;;;34.10;;
4704;SDS011;2366;51.332;6.610;2022-08-19T04:04:02;52.70;;;34.43;;
4704;SDS011;2366;51.332;6.610;2022-08-19T04:06:30;53.53;;;35.00;;
4704;SDS011;2366;51.332;6.610;2022-08-19T04:08:57;51.10;;;34.10;;
4704;SDS011;2366;51.332;6.610;2022-08-19T04:11:25;56.60;;;36.03;;
4704;SDS011;2366;51.332;6.610;2022-08-19T04:13:53;54.90;;;34.72;;
4704;SDS011;2366;51.332;6.610;2022-08-19T04:16:20;57.53;;;36.00;;
4704;SDS011;2366;51.332;6.610;2022-08-19T04:18:48;56.20;;;34.55;;
4704;SDS011;2366;51.332;6.610;2022-08-19T04:21:15;67.13;;;36.45;;
4704;SDS011;2366;51.332;6.610;2022-08-19T04:23:43;51.65;;;34.90;;
4704;SDS011;2366;51.332;6.610;2022-08-19T04:26:16;51.60;;;35.20;;
4704;SDS011;2366;51.332;6.610;2022-08-19T04:28:43;63.08;;;37.83;;
4704;SDS011;2366;51.332;6.610;2022-08-19T04:31:16;59.10;;;36.07;;
4704;SDS011;2366;51.332;6.610;2022-08-19T04:33:44;60.38;;;39.55;;
4704;SDS011;2366;51.332;6.610;2022-08-19T04:36:20;65.20;;;38.30;;
4704;SDS011;2366;51.332;6.610;2022-08-19T04:38:48;65.95;;;40.60;;
4704;SDS011;2366;51.332;6.610;2022-08-19T04:41:15;59.45;;;36.85;;
4704;SDS011;2366;51.332;6.610;2022-08-19T04:43:59;65.57;;;39.88;;
4704;SDS011;2366;51.332;6.610;2022-08-19T04:46:25;73.20;;;43.67;;
4704;SDS011;2366;51.332;6.610;2022-08-19T04:48:50;68.53;;;40.77;;
4704;SDS011;2366;51.332;6.610;2022-08-19T04:51:17;72.28;;;42.40;;
4704;SDS011;2366;51.332;6.610;2022-08-19T04:53:42;79.27;;;43.50;;
4704;SDS011;2366;51.332;6.610;2022-08-19T04:56:12;66.57;;;40.73;;
4704;SDS011;2366;51.332;6.610;2022-08-19T04:58:40;69.38;;;46.45;;
4704;SDS011;2366;51.332;6.610;2022-08-19T05:01:07;70.15;;;41.83;;
4704;SDS011;2366;51.332;6.610;2022-08-19T05:03:42;74.90;;;40.42;;
4704;SDS011;2366;51.332;6.610;2022-08-19T05:06:09;63.97;;;40.83;;
4704;SDS011;2366;51.332;6.610;2022-08-19T05:08:37;66.28;;;41.38;;
4704;SDS011;2366;51.332;6.610;2022-08-19T05:11:08;68.35;;;40.38;;
4704;SDS011;2366;51.332;6.610;2022-08-19T05:13:45;55.20;;;38.40;;
4704;SDS011;2366;51.332;6.610;2022-08-19T05:16:12;60.72;;;37.60;;
4704;SDS011;2366;51.332;6.610;2022-08-19T05:18:39;60.65;;;36.38;;
4704;SDS011;2366;51.332;6.610;2022-08-19T05:21:28;58.63;;;36.97;;
4704;SDS011;2366;51.332;6.610;2022-08-19T05:24:13;64.78;;;41.05;;
4704;SDS011;2366;51.332;6.610;2022-08-19T05:26:40;61.05;;;39.17;;
4704;SDS011;2366;51.332;6.610;2022-08-19T05:29:07;63.17;;;39.72;;
4704;SDS011;2366;51.332;6.610;2022-08-19T05:31:34;67.15;;;38.53;;
4704;SDS011;2366;51.332;6.610;2022-08-19T05:34:01;50.57;;;35.80;;
4704;SDS011;2366;51.332;6.610;2022-08-19T05:36:27;49.20;;;34.33;;
4704;SDS011;2366;51.332;6.610;2022-08-19T05:38:57;51.70;;;33.77;;
4704;SDS011;2366;51.332;6.610;2022-08-19T05:41:22;49.03;;;34.10;;
4704;SDS011;2366;51.332;6.610;2022-08-19T05:43:54;55.30;;;33.13;;
4704;SDS011;2366;51.332;6.610;2022-08-19T05:46:21;56.40;;;33.67;;
4704;SDS011;2366;51.332;6.610;2022-08-19T05:48:47;48.00;;;32.73;;
4704;SDS011;2366;51.332;6.610;2022-08-19T05:51:13;42.73;;;29.80;;
4704;SDS011;2366;51.332;6.610;2022-08-19T05:53:39;40.03;;;27.50;;
4704;SDS011;2366;51.332;6.610;2022-08-19T05:56:08;38.00;;;28.07;;
4704;SDS011;2366;51.332;6.610;2022-08-19T05:58:36;38.27;;;28.03;;
4704;SDS011;2366;51.332;6.610;2022-08-19T06:01:03;39.93;;;25.60;;
4704;SDS011;2366;51.332;6.610;2022-08-19T06:03:34;35.63;;;26.80;;
4704;SDS011;2366;51.332;6.610;2022-08-19T06:06:02;29.40;;;23.60;;
4704;SDS011;2366;51.332;6.610;2022-08-19T06:08:28;35.73;;;26.07;;
4704;SDS011;2366;51.332;6.610;2022-08-19T06:10:54;33.37;;;25.47;;
4704;SDS011;2366;51.332;6.610;2022-08-19T06:13:20;29.07;;;24.40;;
4704;SDS011;2366;51.332;6.610;2022-08-19T06:15:46;35.03;;;25.80;;
4704;SDS011;2366;51.332;6.610;2022-08-19T06:18:12;29.30;;;23.53;;
4704;SDS011;2366;51.332;6.610;2022-08-19T06:20:39;28.90;;;23.80;;
4704;SDS011;2366;51.332;6.610;2022-08-19T06:23:05;32.67;;;23.90;;
4704;SDS011;2366;51.332;6.610;2022-08-19T06:25:30;28.63;;;23.10;;
4704;SDS011;2366;51.332;6.610;2022-08-19T06:27:55;24.47;;;20.87;;
4704;SDS011;2366;51.332;6.610;2022-08-19T06:30:21;30.40;;;21.63;;
4704;SDS011;2366;51.332;6.610;2022-08-19T06:32:46;26.10;;;21.17;;
4704;SDS011;2366;51.332;6.610;2022-08-19T06:35:12;27.27;;;22.43;;
4704;SDS011;2366;51.332;6.610;2022-08-19T06:37:39;28.07;;;21.00;;
4704;SDS011;2366;51.332;6.610;2022-08-19T06:40:05;25.60;;;20.60;;
4704;SDS011;2366;51.332;6.610;2022-08-19T06:42:33;25.80;;;19.97;;
4704;SDS011;2366;51.332;6.610;2022-08-19T06:44:59;18.77;;;15.90;;
4704;SDS011;2366;51.332;6.610;2022-08-19T06:47:28;25.00;;;19.00;;
4704;SDS011;2366;51.332;6.610;2022-08-19T06:49:54;26.03;;;19.00;;
4704;SDS011;2366;51.332;6.610;2022-08-19T06:52:25;25.77;;;19.37;;
4704;SDS011;2366;51.332;6.610;2022-08-19T06:54:50;23.63;;;18.77;;
4704;SDS011;2366;51.332;6.610;2022-08-19T06:57:15;20.87;;;17.40;;
4704;SDS011;2366;51.332;6.610;2022-08-19T06:59:41;23.37;;;16.90;;
4704;SDS011;2366;51.332;6.610;2022-08-19T07:02:06;15.23;;;13.40;;
4704;SDS011;2366;51.332;6.610;2022-08-19T07:04:32;14.23;;;12.70;;
4704;SDS011;2366;51.332;6.610;2022-08-19T07:07:03;15.57;;;12.87;;
4704;SDS011;2366;51.332;6.610;2022-08-19T07:09:32;15.93;;;14.20;;
4704;SDS011;2366;51.332;6.610;2022-08-19T07:11:58;19.67;;;15.67;;
4704;SDS011;2366;51.332;6.610;2022-08-19T07:14:25;16.67;;;14.43;;
4704;SDS011;2366;51.332;6.610;2022-08-19T07:16:52;17.13;;;13.83;;
4704;SDS011;2366;51.332;6.610;2022-08-19T07:19:20;17.00;;;15.20;;
4704;SDS011;2366;51.332;6.610;2022-08-19T07:21:47;19.13;;;15.10;;
4704;SDS011;2366;51.332;6.610;2022-08-19T07:24:14;16.40;;;14.20;;
4704;SDS011;2366;51.332;6.610;2022-08-19T07:26:41;16.47;;;14.50;;
4704;SDS011;2366;51.332;6.610;2022-08-19T07:29:08;17.77;;;15.87;;
4704;SDS011;2366;51.332;6.610;2022-08-19T07:31:33;18.03;;;16.13;;
4704;SDS011;2366;51.332;6.610;2022-08-19T07:34:02;17.70;;;15.90;;
4704;SDS011;2366;51.332;6.610;2022-08-19T07:36:32;21.87;;;18.90;;
4704;SDS011;2366;51.332;6.610;2022-08-19T07:39:00;20.53;;;17.33;;
4704;SDS011;2366;51.332;6.610;2022-08-19T07:41:29;20.50;;;18.27;;
4704;SDS011;2366;51.332;6.610;2022-08-19T07:43:57;24.00;;;20.43;;
4704;SDS011;2366;51.332;6.610;2022-08-19T07:46:29;25.10;;;21.43;;
4704;SDS011;2366;51.332;6.610;2022-08-19T07:48:56;24.43;;;21.03;;
4704;SDS011;2366;51.332;6.610;2022-08-19T07:51:21;25.23;;;20.33;;
4704;SDS011;2366;51.332;6.610;2022-08-19T07:53:47;30.47;;;22.00;;
4704;SDS011;2366;51.332;6.610;2022-08-19T07:56:15;23.30;;;20.50;;
4704;SDS011;2366;51.332;6.610;2022-08-19T07:58:43;31.63;;;24.63;;
4704;SDS011;2366;51.332;6.610;2022-08-19T08:01:15;28.73;;;24.00;;
4704;SDS011;2366;51.332;6.610;2022-08-19T08:03:46;37.13;;;24.13;;
4704;SDS011;2366;51.332;6.610;2022-08-19T08:06:31;37.53;;;26.67;;
4704;SDS011;2366;51.332;6.610;2022-08-19T08:09:18;39.13;;;25.90;;
4704;SDS011;2366;51.332;6.610;2022-08-19T08:11:54;40.47;;;28.77;;
4704;SDS011;2366;51.332;6.610;2022-08-19T08:14:26;42.33;;;29.63;;
4704;SDS011;2366;51.332;6.610;2022-08-19T08:16:54;41.33;;;28.60;;
4704;SDS011;2366;51.332;6.610;2022-08-19T08:19:20;47.57;;;29.93;;
4704;SDS011;2366;51.332;6.610;2022-08-19T08:21:48;38.53;;;25.70;;
4704;SDS011;2366;51.332;6.610;2022-08-19T08:24:14;36.83;;;27.93;;
4704;SDS011;2366;51.332;6.610;2022-08-19T08:26:40;41.23;;;26.93;;
4704;SDS011;2366;51.332;6.610;2022-08-19T08:29:07;34.70;;;26.57;;
4704;SDS011;2366;51.332;6.610;2022-08-19T08:31:34;40.63;;;25.37;;
4704;SDS011;2366;51.332;6.610;2022-08-19T08:33:59;37.17;;;27.03;;
4704;SDS011;2366;51.332;6.610;2022-08-19T08:36:25;31.93;;;23.67;;
4704;SDS011;2366;51.332;6.610;2022-08-19T08:38:50;39.17;;;26.20;;
4704;SDS011;2366;51.332;6.610;2022-08-19T08:44:17;38.30;;;25.33;;
4704;SDS011;2366;51.332;6.610;2022-08-19T08:46:54;34.07;;;22.60;;
4704;SDS011;2366;51.332;6.610;2022-08-19T08:49:29;35.50;;;19.37;;
4704;SDS011;2366;51.332;6.610;2022-08-19T08:52:05;40.03;;;26.30;;
4704;SDS011;2366;51.332;6.610;2022-08-19T08:54:47;33.40;;;23.30;;
4704;SDS011;2366;51.332;6.610;2022-08-19T08:57:19;34.87;;;24.47;;
4704;SDS011;2366;51.332;6.610;2022-08-19T09:00:09;30.23;;;23.23;;
4704;SDS011;2366;51.332;6.610;2022-08-19T09:02:39;29.67;;;20.80;;
4704;SDS011;2366;51.332;6.610;2022-08-19T09:05:05;20.93;;;16.33;;
4704;SDS011;2366;51.332;6.610;2022-08-19T09:15:42;20.27;;;16.63;;
4704;SDS011;2366;51.332;6.610;2022-08-19T09:18:13;22.20;;;16.73;;
4704;SDS011;2366;51.332;6.610;2022-08-19T09:20:40;21.23;;;16.77;;
4704;SDS011;2366;51.332;6.610;2022-08-19T09:23:05;20.47;;;16.07;;
4704;SDS011;2366;51.332;6.610;2022-08-19T09:25:31;20.60;;;16.40;;
4704;SDS011;2366;51.332;6.610;2022-08-19T09:27:57;17.60;;;13.53;;
4704;SDS011;2366;51.332;6.610;2022-08-19T09:30:28;15.13;;;13.53;;
4704;SDS011;2366;51.332;6.610;2022-08-19T09:32:56;17.93;;;13.40;;
4704;SDS011;2366;51.332;6.610;2022-08-19T09:35:22;18.33;;;15.67;;
4704;SDS011;2366;51.332;6.610;2022-08-19T09:37:50;15.67;;;12.40;;
4704;SDS011;2366;51.332;6.610;2022-08-19T09:40:16;11.47;;;10.30;;
4704;SDS011;2366;51.332;6.610;2022-08-19T09:42:42;14.47;;;10.87;;
4704;SDS011;2366;51.332;6.610;2022-08-19T09:45:11;17.27;;;11.43;;
4704;SDS011;2366;51.332;6.610;2022-08-19T09:47:36;12.43;;;10.70;;
4704;SDS011;2366;51.332;6.610;2022-08-19T09:50:04;11.17;;;9.70;;
4704;SDS011;2366;51.332;6.610;2022-08-19T09:52:31;22.20;;;10.77;;
4704;SDS011;2366;51.332;6.610;2022-08-19T09:54:56;16.20;;;11.33;;
4704;SDS011;2366;51.332;6.610;2022-08-19T09:57:22;11.97;;;9.90;;
4704;SDS011;2366;51.332;6.610;2022-08-19T09:59:47;13.97;;;9.93;;
4704;SDS011;2366;51.332;6.610;2022-08-19T10:02:13;15.90;;;11.17;;
4704;SDS011;2366;51.332;6.610;2022-08-19T10:04:39;14.17;;;9.90;;
4704;SDS011;2366;51.332;6.610;2022-08-19T10:07:23;10.80;;;9.47;;
4704;SDS011;2366;51.332;6.610;2022-08-19T10:09:49;12.53;;;8.43;;
4704;SDS011;2366;51.332;6.610;2022-08-19T10:12:14;11.20;;;9.70;;
4704;SDS011;2366;51.332;6.610;2022-08-19T10:14:40;14.53;;;9.70;;
4704;SDS011;2366;51.332;6.610;2022-08-19T10:17:06;11.23;;;9.87;;
4704;SDS011;2366;51.332;6.610;2022-08-19T10:19:31;11.57;;;10.37;;
4704;SDS011;2366;51.332;6.610;2022-08-19T10:22:02;14.27;;;11.50;;
4704;SDS011;2366;51.332;6.610;2022-08-19T10:24:29;12.30;;;8.93;;
4704;SDS011;2366;51.332;6.610;2022-08-19T10:26:55;15.23;;;10.90;;
4704;SDS011;2366;51.332;6.610;2022-08-19T10:29:21;14.20;;;10.47;;
4704;SDS011;2366;51.332;6.610;2022-08-19T10:31:46;11.83;;;9.50;;
4704;SDS011;2366;51.332;6.610;2022-08-19T10:34:12;9.87;;;8.00;;
4704;SDS011;2366;51.332;6.610;2022-08-19T10:36:37;11.40;;;8.43;;
4704;SDS011;2366;51.332;6.610;2022-08-19T10:39:05;8.93;;;7.40;;
4704;SDS011;2366;51.332;6.610;2022-08-19T10:41:33;14.70;;;10.10;;
4704;SDS011;2366;51.332;6.610;2022-08-19T10:44:04;15.20;;;9.17;;
4704;SDS011;2366;51.332;6.610;2022-08-19T10:46:32;11.80;;;9.67;;
4704;SDS011;2366;51.332;6.610;2022-08-19T10:49:00;11.30;;;9.87;;
4704;SDS011;2366;51.332;6.610;2022-08-19T10:51:27;11.40;;;7.40;;
4704;SDS011;2366;51.332;6.610;2022-08-19T10:54:11;10.57;;;9.30;;
4704;SDS011;2366;51.332;6.610;2022-08-19T10:56:37;9.70;;;7.73;;
4704;SDS011;2366;51.332;6.610;2022-08-19T10:59:19;12.13;;;9.20;;
4704;SDS011;2366;51.332;6.610;2022-08-19T11:01:54;13.60;;;8.73;;
4704;SDS011;2366;51.332;6.610;2022-08-19T11:04:24;10.70;;;9.00;;
4704;SDS011;2366;51.332;6.610;2022-08-19T11:06:49;10.63;;;7.67;;
4704;SDS011;2366;51.332;6.610;2022-08-19T11:09:15;8.77;;;7.20;;
4704;SDS011;2366;51.332;6.610;2022-08-19T11:11:44;11.93;;;6.53;;
4704;SDS011;2366;51.332;6.610;2022-08-19T11:14:11;8.23;;;6.80;;
4704;SDS011;2366;51.332;6.610;2022-08-19T11:16:56;7.70;;;6.93;;
4704;SDS011;2366;51.332;6.610;2022-08-19T11:19:21;9.93;;;8.23;;
4704;SDS011;2366;51.332;6.610;2022-08-19T11:21:48;23.57;;;6.97;;
4704;SDS011;2366;51.332;6.610;2022-08-19T11:24:19;12.23;;;7.40;;
4704;SDS011;2366;51.332;6.610;2022-08-19T11:26:47;6.60;;;5.73;;
4704;SDS011;2366;51.332;6.610;2022-08-19T11:29:15;9.17;;;6.37;;
4704;SDS011;2366;51.332;6.610;2022-08-19T11:31:42;13.70;;;8.20;;
4704;SDS011;2366;51.332;6.610;2022-08-19T11:34:12;8.40;;;5.50;;
4704;SDS011;2366;51.332;6.610;2022-08-19T11:36:41;12.40;;;5.80;;
4704;SDS011;2366;51.332;6.610;2022-08-19T11:39:10;8.43;;;5.40;;
4704;SDS011;2366;51.332;6.610;2022-08-19T11:41:36;7.40;;;6.67;;
4704;SDS011;2366;51.332;6.610;2022-08-19T11:44:02;12.80;;;5.63;;
4704;SDS011;2366;51.332;6.610;2022-08-19T11:46:28;5.27;;;4.83;;
4704;SDS011;2366;51.332;6.610;2022-08-19T11:48:55;10.17;;;7.10;;
4704;SDS011;2366;51.332;6.610;2022-08-19T11:51:21;10.27;;;6.53;;
4704;SDS011;2366;51.332;6.610;2022-08-19T11:53:49;8.00;;;5.67;;
4704;SDS011;2366;51.332;6.610;2022-08-19T11:56:15;9.70;;;5.90;;
4704;SDS011;2366;51.332;6.610;2022-08-19T11:58:43;8.07;;;6.17;;
4704;SDS011;2366;51.332;6.610;2022-08-19T12:01:09;7.00;;;5.63;;
4704;SDS011;2366;51.332;6.610;2022-08-19T12:03:40;6.07;;;5.53;;
4704;SDS011;2366;51.332;6.610;2022-08-19T12:06:07;12.00;;;5.47;;
4704;SDS011;2366;51.332;6.610;2022-08-19T12:08:35;11.70;;;5.90;;
4704;SDS011;2366;51.332;6.610;2022-08-19T12:11:01;8.93;;;5.00;;
4704;SDS011;2366;51.332;6.610;2022-08-19T12:13:27;5.47;;;5.03;;
4704;SDS011;2366;51.332;6.610;2022-08-19T12:15:53;8.23;;;5.97;;
4704;SDS011;2366;51.332;6.610;2022-08-19T12:18:19;7.30;;;5.50;;
4704;SDS011;2366;51.332;6.610;2022-08-19T12:20:45;8.70;;;5.67;;
4704;SDS011;2366;51.332;6.610;2022-08-19T12:23:11;7.33;;;5.87;;
4704;SDS011;2366;51.332;6.610;2022-08-19T12:25:37;5.50;;;4.63;;
4704;SDS011;2366;51.332;6.610;2022-08-19T12:28:10;4.60;;;4.20;;
4704;SDS011;2366;51.332;6.610;2022-08-19T12:30:37;4.63;;;4.03;;
4704;SDS011;2366;51.332;6.610;2022-08-19T12:33:03;4.37;;;3.97;;
4704;SDS011;2366;51.332;6.610;2022-08-19T12:35:28;4.53;;;3.40;;
4704;SDS011;2366;51.332;6.610;2022-08-19T12:37:55;5.13;;;3.60;;
4704;SDS011;2366;51.332;6.610;2022-08-19T12:40:21;5.20;;;4.23;;
4704;SDS011;2366;51.332;6.610;2022-08-19T12:42:46;9.70;;;4.57;;
4704;SDS011;2366;51.332;6.610;2022-08-19T12:45:12;6.17;;;4.10;;
4704;SDS011;2366;51.332;6.610;2022-08-19T12:47:38;5.50;;;3.93;;
4704;SDS011;2366;51.332;6.610;2022-08-19T12:50:05;10.63;;;5.40;;
4704;SDS011;2366;51.332;6.610;2022-08-19T12:52:35;10.03;;;4.20;;
4704;SDS011;2366;51.332;6.610;2022-08-19T12:55:06;8.00;;;4.10;;
4704;SDS011;2366;51.332;6.610;2022-08-19T12:57:31;5.50;;;4.00;;
4704;SDS011;2366;51.332;6.610;2022-08-19T13:00:09;7.07;;;4.10;;
4704;SDS011;2366;51.332;6.610;2022-08-19T13:02:41;5.37;;;3.83;;
4704;SDS011;2366;51.332;6.610;2022-08-19T13:05:10;4.70;;;3.20;;
4704;SDS011;2366;51.332;6.610;2022-08-19T13:07:38;3.43;;;3.10;;
4704;SDS011;2366;51.332;6.610;2022-08-19T13:10:05;8.53;;;3.47;;
4704;SDS011;2366;51.332;6.610;2022-08-19T13:12:32;8.80;;;4.43;;
4704;SDS011;2366;51.332;6.610;2022-08-19T13:14:57;9.63;;;4.43;;
4704;SDS011;2366;51.332;6.610;2022-08-19T13:17:23;7.80;;;4.60;;
4704;SDS011;2366;51.332;6.610;2022-08-19T13:19:48;3.67;;;3.33;;
4704;SDS011;2366;51.332;6.610;2022-08-19T13:22:14;7.03;;;3.37;;
4704;SDS011;2366;51.332;6.610;2022-08-19T13:24:39;5.60;;;4.17;;
4704;SDS011;2366;51.332;6.610;2022-08-19T13:27:05;7.53;;;3.47;;
4704;SDS011;2366;51.332;6.610;2022-08-19T13:29:31;4.27;;;3.97;;
4704;SDS011;2366;51.332;6.610;2022-08-19T13:32:15;8.70;;;4.60;;
4704;SDS011;2366;51.332;6.610;2022-08-19T13:35:00;12.50;;;4.47;;
4704;SDS011;2366;51.332;6.610;2022-08-19T13:37:25;5.47;;;4.47;;
4704;SDS011;2366;51.332;6.610;2022-08-19T13:40:07;7.00;;;3.47;;
4704;SDS011;2366;51.332;6.610;2022-08-19T13:42:39;6.00;;;3.47;;
4704;SDS011;2366;51.332;6.610;2022-08-19T13:45:05;3.27;;;3.03;;
4704;SDS011;2366;51.332;6.610;2022-08-19T13:47:32;7.97;;;4.47;;
4704;SDS011;2366;51.332;6.610;2022-08-19T13:50:07;5.83;;;4.27;;
4704;SDS011;2366;51.332;6.610;2022-08-19T13:52:35;4.77;;;3.40;;
4704;SDS011;2366;51.332;6.610;2022-08-19T13:55:01;3.80;;;3.50;;
4704;SDS011;2366;51.332;6.610;2022-08-19T13:57:29;8.93;;;4.23;;
4704;SDS011;2366;51.332;6.610;2022-08-19T13:59:55;7.63;;;3.57;;
4704;SDS011;2366;51.332;6.610;2022-08-19T14:02:22;8.23;;;3.77;;
4704;SDS011;2366;51.332;6.610;2022-08-19T14:04:47;3.93;;;3.63;;
4704;SDS011;2366;51.332;6.610;2022-08-19T14:07:12;7.07;;;4.07;;
4704;SDS011;2366;51.332;6.610;2022-08-19T14:09:39;5.20;;;3.80;;
4704;SDS011;2366;51.332;6.610;2022-08-19T14:12:04;5.47;;;3.70;;
4704;SDS011;2366;51.332;6.610;2022-08-19T14:14:30;2.93;;;2.73;;
4704;SDS011;2366;51.332;6.610;2022-08-19T14:16:55;10.83;;;3.50;;
4704;SDS011;2366;51.332;6.610;2022-08-19T14:19:20;4.63;;;3.63;;
4704;SDS011;2366;51.332;6.610;2022-08-19T14:21:46;3.20;;;2.90;;
4704;SDS011;2366;51.332;6.610;2022-08-19T14:24:11;5.33;;;3.47;;
4704;SDS011;2366;51.332;6.610;2022-08-19T14:26:37;9.77;;;2.87;;
4704;SDS011;2366;51.332;6.610;2022-08-19T14:29:03;4.67;;;3.00;;
4704;SDS011;2366;51.332;6.610;2022-08-19T14:31:28;2.77;;;2.57;;
4704;SDS011;2366;51.332;6.610;2022-08-19T14:33:54;2.70;;;2.40;;
4704;SDS011;2366;51.332;6.610;2022-08-19T14:36:19;8.10;;;2.93;;
4704;SDS011;2366;51.332;6.610;2022-08-19T14:38:46;2.67;;;2.47;;
4704;SDS011;2366;51.332;6.610;2022-08-19T14:41:14;2.23;;;2.13;;
4704;SDS011;2366;51.332;6.610;2022-08-19T14:43:45;3.20;;;2.90;;
4704;SDS011;2366;51.332;6.610;2022-08-19T14:46:15;3.03;;;2.83;;
4704;SDS011;2366;51.332;6.610;2022-08-19T14:48:44;4.43;;;3.83;;
4704;SDS011;2366;51.332;6.610;2022-08-19T14:51:10;4.23;;;3.20;;
4704;SDS011;2366;51.332;6.610;2022-08-19T14:53:35;3.63;;;3.23;;
4704;SDS011;2366;51.332;6.610;2022-08-19T14:56:01;5.53;;;3.50;;
4704;SDS011;2366;51.332;6.610;2022-08-19T14:58:31;7.43;;;4.00;;
4704;SDS011;2366;51.332;6.610;2022-08-19T15:00:59;7.73;;;3.53;;
4704;SDS011;2366;51.332;6.610;2022-08-19T15:03:25;10.20;;;4.43;;
4704;SDS011;2366;51.332;6.610;2022-08-19T15:05:50;5.47;;;3.50;;
4704;SDS011;2366;51.332;6.610;2022-08-19T15:08:16;3.23;;;2.87;;
4704;SDS011;2366;51.332;6.610;2022-08-19T15:10:41;4.57;;;3.40;;
4704;SDS011;2366;51.332;6.610;2022-08-19T15:13:07;4.60;;;3.53;;
4704;SDS011;2366;51.332;6.610;2022-08-19T15:15:33;8.30;;;4.80;;